Flight Track Log - Related Links

Times and Time Zones

All times are in EDT time to prevent confusion due to time zone crossing. See the UPS1337 flight status page for this flight to view local times or setup timezone preferences in your user account.

Time Position Orientation Groundspeed Altitude Reporting Facility
EDT Latitude Longitude Course Direction KTS MPH feet Rate Location/Type
Mon 09:46:39 PM 27.9000 -82.6833 192° South 173 199 800  Level Tampa TRACON
Mon 09:47:57 PM 27.8333 -82.7000 192° South 256 295 3,600 2,696 Climbing Tampa TRACON
Mon 09:48:57 PM 27.8500 -82.7833 283° West 299 344 7,000 2,734 Climbing Tampa TRACON
Mon 09:50:35 PM 27.9789 -82.7586 10° North 285 328 10,800 1,975 Climbing Jacksonville Center
Mon 09:51:35 PM 28.0853 -82.7419 North 354 407 12,200 2,150 Climbing Jacksonville Center
Mon 09:52:35 PM 28.2000 -82.7278 North 381 438 15,100 2,650 Climbing Jacksonville Center
Mon 09:53:35 PM 28.3167 -82.7158 North 403 464 17,500 2,489 Climbing Jacksonville Center
Mon 09:55:43 PM 28.5963 -82.6840 North 443 510 22,900 1,951 Climbing FlightAware ADS-B
Mon 09:59:04 PM 29.0223 -82.6374 North 451 519 28,200 1,638 Climbing FlightAware ADS-B
Mon 10:00:36 PM 29.2186 -82.6152 North 463 533 30,900 678 Climbing FlightAware ADS-B
Mon 10:06:09 PM 29.9293 -82.5359 North 459 528 33,000 200 Climbing FlightAware ADS-B
Mon 10:11:07 PM 30.5623 -82.4639 North 458 527 33,000  Level FlightAware ADS-B
Mon 10:11:48 PM 30.6492 -82.4540 North 458 527 33,000  Level FlightAware ADS-B
Mon 10:12:35 PM 30.7397 -82.4453 North 463 533 33,000  Level Jacksonville Center
Mon 10:13:35 PM 30.8650 -82.4328 North 463 533 33,000 -50 Level Jacksonville Center
Mon 10:14:35 PM 30.9944 -82.4175 North 463 533 32,900  Descending Jacksonville Center
Mon 10:15:35 PM 31.1236 -82.4000 North 463 533 33,000 50 Climbing Jacksonville Center
Mon 10:16:35 PM 31.2531 -82.3872 North 463 533 33,000  Level Jacksonville Center
Mon 10:17:35 PM 31.3825 -82.3694 North 463 533 33,000  Level Jacksonville Center
Mon 10:19:53 PM 31.6681 -82.3381 North 469 540 33,000  Level Atlanta Center
Mon 10:20:53 PM 31.7994 -82.3233 North 469 540 33,000  Level Atlanta Center
Mon 10:21:53 PM 31.9264 -82.3064 North 464 534 33,000  Level Atlanta Center
Mon 10:22:53 PM 32.0536 -82.2917 North 464 534 33,000  Level Atlanta Center
Mon 10:23:53 PM 32.1847 -82.2767 North 464 534 33,000  Level Atlanta Center
Mon 10:24:53 PM 32.3264 -82.2592 North 464 534 33,000  Level Atlanta Center
Mon 10:25:53 PM 32.4536 -82.2419 North 464 534 33,000  Level Atlanta Center
Mon 10:26:53 PM 32.5847 -82.2244 North 464 534 33,000  Level Atlanta Center
Mon 10:27:53 PM 32.7183 -82.2119 North 470 541 33,000  Level Atlanta Center
Mon 10:28:53 PM 32.8475 -82.1942 North 470 541 33,000  Level Atlanta Center
Mon 10:29:53 PM 32.9767 -82.1817 North 470 541 33,000  Level Atlanta Center
Mon 10:30:53 PM 33.0975 -82.1667 North 475 547 33,000  Level Atlanta Center
Mon 10:31:53 PM 33.2267 -82.1492 North 475 547 33,000  Level Atlanta Center
Mon 10:32:53 PM 33.3600 -82.1336 North 480 552 33,000 500 Level Atlanta Center
Mon 10:33:53 PM 33.4917 -82.1433 356° North 475 547 34,000 500 Climbing Atlanta Center
Mon 10:34:53 PM 33.6092 -82.1956 340° North 457 526 34,000  Level Atlanta Center
Mon 10:35:53 PM 33.7311 -82.2478 340° North 451 519 34,000  Level Atlanta Center
Mon 10:36:53 PM 33.8633 -82.3100 339° North 462 532 34,000  Level Atlanta Center
Mon 10:41:32 PM 34.5551 -82.6078 340° North 460 529 34,000  Level FlightAware ADS-B (KDZJ)
Mon 10:42:06 PM 34.6231 -82.6379 340° North 465 535 34,000  Level FlightAware ADS-B (KDZJ)
Mon 10:42:44 PM 34.6991 -82.6714 340° North 447 514 34,000  Level FlightAware ADS-B (KDZJ)
Mon 10:43:25 PM 34.7802 -82.7074 340° North 443 510 34,000  Level FlightAware ADS-B (KDZJ)
Mon 10:44:17 PM 34.8795 -82.7517 340° North 443 510 34,000  Level FlightAware ADS-B (KDZJ)
Mon 10:44:53 PM 34.9491 -82.7829 340° North 446 513 34,000  Level FlightAware ADS-B (KDZJ)
Mon 10:46:04 PM 35.0863 -82.8441 340° North 449 517 34,000  Level FlightAware ADS-B (KDZJ)
Mon 10:47:02 PM 35.1993 -82.8947 340° North 450 518 34,000  Level FlightAware ADS-B (KDZJ)
Mon 10:47:59 PM 35.3109 -82.9450 339° North 446 513 34,000  Level FlightAware ADS-B (KDZJ)
Mon 10:48:51 PM 35.4132 -82.9912 340° North 449 517 34,000  Level FlightAware ADS-B (KDZJ)
Mon 10:49:43 PM 35.5173 -83.0383 340° North 464 534 34,000  Level FlightAware ADS-B (KDZJ)
Mon 10:50:33 PM 35.6169 -83.0835 339° North 461 531 34,000  Level FlightAware ADS-B (KDZJ)
Mon 10:51:26 PM 35.7253 -83.1328 339° North 464 534 34,000  Level FlightAware ADS-B (KDZJ)
Mon 10:52:21 PM 35.7203 -83.1306 339° North 466 536 34,000  Level Indianapolis Center
Mon 10:52:53 PM 35.7861 -83.1633 338° Northwest 464 534 34,000  Level Atlanta Center
Mon 10:53:53 PM 35.9053 -83.2183 340° North 464 534 34,000  Level Atlanta Center
Mon 10:54:53 PM 36.0308 -83.2736 340° North 470 541 34,000  Level Atlanta Center
Mon 10:55:53 PM 36.1564 -83.3317 340° North 470 541 34,000  Level Atlanta Center
Mon 10:56:53 PM 36.2756 -83.3897 339° North 470 541 34,000 -255 Level Atlanta Center
Mon 10:57:27 PM 36.3381 -83.4144 342° North 475 547 33,600 -884 Descending Indianapolis Center
Mon 10:58:28 PM 36.4625 -83.4722 340° North 475 547 32,600 -1,033 Descending Indianapolis Center
Mon 10:59:29 PM 36.5867 -83.5300 340° North 475 547 31,500 -1,082 Descending Indianapolis Center
Mon 11:00:30 PM 36.7097 -83.5875 339° North 471 542 30,400 -738 Descending Indianapolis Center
Mon 11:01:31 PM 36.8344 -83.6458 339° North 475 547 30,000 -787 Descending Indianapolis Center
Mon 11:02:32 PM 36.9450 -83.7694 318° Northwest 456 525 28,800 -1,268 Descending Indianapolis Center
Mon 11:03:34 PM 37.0211 -83.8958 307° West 455 524 27,400 -1,659 Descending Indianapolis Center
Mon 11:04:35 PM 37.0969 -84.0203 307° West 446 513 25,400 -2,066 Descending Indianapolis Center
Mon 11:05:36 PM 37.1689 -84.1397 307° West 427 491 23,200 -2,066 Descending Indianapolis Center
Mon 11:06:37 PM 37.2392 -84.2561 307° West 419 482 21,200 -1,869 Descending Indianapolis Center
Mon 11:07:38 PM 37.3072 -84.3706 307° West 411 473 19,400 -1,918 Descending Indianapolis Center
Mon 11:08:39 PM 37.3747 -84.4828 307° West 406 467 17,300 -1,805 Descending Indianapolis Center
Mon 11:09:41 PM 37.4400 -84.5919 307° West 389 448 15,700 -1,561 Descending Indianapolis Center
Mon 11:10:42 PM 37.5025 -84.6972 307° West 374 430 14,100 -1,525 Descending Indianapolis Center
Mon 11:11:43 PM 37.5639 -84.8017 307° West 373 429 12,600 -1,820 Descending Indianapolis Center
Mon 11:12:44 PM 37.6361 -84.9228 307° West 372 428 10,400 -1,328 Descending Indianapolis Center
Mon 11:13:45 PM 37.7003 -85.0197 310° West 363 418 9,900 -197 Descending Indianapolis Center
Mon 11:14:46 PM 37.7708 -85.1144 313° West 365 420 10,000 49 Climbing Indianapolis Center
Mon 11:15:48 PM 37.8417 -85.2128 312° West 365 420 10,000  Level Indianapolis Center
Mon 11:16:49 PM 37.9086 -85.3058 312° West 344 396 10,000 -295 Level Indianapolis Center
Mon 11:17:50 PM 37.9658 -85.3853 312° West 294 338 9,400 -787 Descending Indianapolis Center
Mon 11:18:51 PM 38.0183 -85.4581 312° West 280 322 8,400 -1,082 Descending Indianapolis Center
Mon 11:19:52 PM 38.0719 -85.5328 312° West 284 327 7,200 -1,122 Descending Indianapolis Center
Mon 11:20:54 PM 38.1314 -85.6000 318° Northwest 299 344 6,100 -1,171 Descending Indianapolis Center
Mon 11:21:55 PM 38.2161 -85.6250 347° North 306 352 4,800 -984 Descending Indianapolis Center
Mon 11:22:56 PM 38.3000 -85.6503 347° North 307 353 4,100 -689 Descending Indianapolis Center
Mon 11:23:57 PM 38.3778 -85.6731 347° North 303 349 3,400 -537 Descending Indianapolis Center
Mon 11:24:59 PM 38.4042 -85.7386 297° West 264 304 3,000 -195 Descending Indianapolis Center
Mon 11:26:00 PM 38.3728 -85.7889 231° Southwest 238 274 3,000  Level Indianapolis Center
Mon 11:27:01 PM 38.3214 -85.7928 183° South 211 243 3,000 -344 Level Indianapolis Center
Mon 11:28:02 PM 38.2767 -85.7789 166° South 185 213 2,300 -689 Descending Indianapolis Center
Mon 11:30:04 PM 38.2000 -85.7500 164° South 126 145 900 -689 Descending Louisville TRACON

Login

Don't have an account? Register now (free) for customized features, flight alerts, and more!